Terminal Aerodrome Forecast
Issued by NWS Shreveport, LA

Home | Current Version | Previous Version | Text Only | Print | Product List | Glossary On
Versions: 1 2 3 4 5 6 7 8 9 10 11 12 13 14 15 16
336
FTUS44 KSHV 260521
TAFSHV
TAF
KSHV 260521Z 2606/2706 VRB03KT P6SM -RA SCT008 BKN120 OVC250
     FM260800 12004KT 4SM BR OVC015
      TEMPO 2611/2614 4SM BR BKN006 OVC015
     FM261500 VRB04KT 5SM BR BKN015 OVC030
     FM261700 VRB04KT P6SM SCT035 BKN120
     FM262100 33005KT P6SM BKN045=

USA.gov is the U.S. government's official web portal to all federal, state and local government web resources and services.